Aeroporto :
LOGIN :

Iscrizione | Disclaimer

   EN    FR    IT 

 










Sommario :    VFR   VFR Marginale   IFR   IFR Intensivo   IFR Molto Intensivo
Visibilità : 
Base nubi : 
>= 8 km
>= 3000ft
5 / 8 km
1000 / 3000 ft
1500m / 5 km
500 / 1000 ft
800 / 1500m
200 / 500 ft
< 800m
< 200 ft
Simboli :   Temporali  Nebbia  Neve Forte  Precipitazioni Forti  Vento > 20 kt
SIGMETs :   Varie  Temporali  Ghiacco  Turbolenza  Onda orograficha  Ceneri Vulcaniche






- Altitudine del aeroporto : 463 ft
- Codice IATA : SZY
- AEROPORTO CHIUSO.


EPSY - Szczytno

ULTIMO METAR :
  • 240600Z 25010KT 220V290 9999 SCT013 BKN040 05/03 Q1023

METARs OBSOLETI :
  • 240530Z 26008KT 230V300 9999 BKN015 05/03 Q1022
  • 240500Z 26008KT 220V290 9999 BKN016 BKN046 05/03 Q1022
  • 240430Z 26008KT 220V310 9999 BKN017 05/03 Q1022
  • 240400Z 26007KT 230V290 9999 BKN015 06/03 Q1022
  • 240330Z 26007KT 230V330 9999 BKN016 06/03 Q1022

TAF TAF EPSY
Valido dal 24 a 06 ore il 24 a 15 ore UTC


240530Z 2406/2415 25008KT 9999 SCT020 BKN040
TEMPO 2406/2410 SCT010 BKN016



MetMap, La meteo Aeronautica in un colpo d'occhio ! - Copyright ORBIFLY Dicembre 2007 - Disclaimer

ORBIFLY MET'MAP TEAM :

Programmazione e sviluppo : Alexandra Zaïnal
Concezione : Baudouin d'Aumeries
Aiuto per la programmazione : Marc-Olivier Méhu
Supporto tecnico e logistico : Manuel Goepfert
Aiuto per la traduzione : Arnaldo La Scala

Contatto : metmap@orbifly.com




FONTI E CREDITI :

   NOAA